sensor_id;sensor_type;location;lat;lon;timestamp;P1;durP1;ratioP1;P2;durP2;ratioP2
58360;SDS011;44164;44.954;10.068;2022-12-05T00:01:26;2.78;;;1.85;;
58360;SDS011;44164;44.954;10.068;2022-12-05T00:03:53;3.85;;;1.60;;
58360;SDS011;44164;44.954;10.068;2022-12-05T00:06:22;4.43;;;2.15;;
58360;SDS011;44164;44.954;10.068;2022-12-05T00:11:17;2.72;;;1.83;;
58360;SDS011;44164;44.954;10.068;2022-12-05T00:13:44;3.22;;;2.03;;
58360;SDS011;44164;44.954;10.068;2022-12-05T00:16:12;2.15;;;1.70;;
58360;SDS011;44164;44.954;10.068;2022-12-05T00:18:40;2.33;;;1.90;;
58360;SDS011;44164;44.954;10.068;2022-12-05T00:21:06;2.78;;;2.10;;
58360;SDS011;44164;44.954;10.068;2022-12-05T00:23:38;2.28;;;1.80;;
58360;SDS011;44164;44.954;10.068;2022-12-05T00:26:04;2.10;;;1.67;;
58360;SDS011;44164;44.954;10.068;2022-12-05T00:28:32;3.00;;;2.10;;
58360;SDS011;44164;44.954;10.068;2022-12-05T00:31:02;3.03;;;2.30;;
58360;SDS011;44164;44.954;10.068;2022-12-05T00:33:32;2.72;;;2.05;;
58360;SDS011;44164;44.954;10.068;2022-12-05T00:36:06;2.97;;;2.00;;
58360;SDS011;44164;44.954;10.068;2022-12-05T00:38:34;2.28;;;1.73;;
58360;SDS011;44164;44.954;10.068;2022-12-05T00:41:08;3.28;;;2.03;;
58360;SDS011;44164;44.954;10.068;2022-12-05T00:43:36;2.92;;;1.95;;
58360;SDS011;44164;44.954;10.068;2022-12-05T00:46:05;2.70;;;2.00;;
58360;SDS011;44164;44.954;10.068;2022-12-05T00:48:38;2.67;;;2.10;;
58360;SDS011;44164;44.954;10.068;2022-12-05T00:51:09;2.65;;;2.25;;
58360;SDS011;44164;44.954;10.068;2022-12-05T00:53:39;3.08;;;1.70;;
58360;SDS011;44164;44.954;10.068;2022-12-05T00:56:08;2.13;;;1.60;;
58360;SDS011;44164;44.954;10.068;2022-12-05T00:58:38;3.03;;;2.22;;
58360;SDS011;44164;44.954;10.068;2022-12-05T01:01:13;3.22;;;2.05;;
58360;SDS011;44164;44.954;10.068;2022-12-05T01:03:41;4.00;;;1.98;;
58360;SDS011;44164;44.954;10.068;2022-12-05T01:06:07;2.83;;;2.00;;
58360;SDS011;44164;44.954;10.068;2022-12-05T01:08:35;2.40;;;1.75;;
58360;SDS011;44164;44.954;10.068;2022-12-05T01:11:02;2.85;;;2.05;;
58360;SDS011;44164;44.954;10.068;2022-12-05T01:13:29;2.00;;;1.63;;
58360;SDS011;44164;44.954;10.068;2022-12-05T01:15:55;3.65;;;1.65;;
58360;SDS011;44164;44.954;10.068;2022-12-05T01:18:22;2.20;;;1.65;;
58360;SDS011;44164;44.954;10.068;2022-12-05T01:20:49;2.40;;;1.88;;
58360;SDS011;44164;44.954;10.068;2022-12-05T01:23:15;3.33;;;2.08;;
58360;SDS011;44164;44.954;10.068;2022-12-05T01:25:43;2.17;;;1.73;;
58360;SDS011;44164;44.954;10.068;2022-12-05T01:28:11;2.80;;;1.83;;
58360;SDS011;44164;44.954;10.068;2022-12-05T01:30:39;3.03;;;2.05;;
58360;SDS011;44164;44.954;10.068;2022-12-05T01:33:06;2.35;;;1.77;;
58360;SDS011;44164;44.954;10.068;2022-12-05T01:35:33;2.20;;;1.58;;
58360;SDS011;44164;44.954;10.068;2022-12-05T01:38:04;2.00;;;1.67;;
58360;SDS011;44164;44.954;10.068;2022-12-05T01:40:31;2.72;;;1.98;;
58360;SDS011;44164;44.954;10.068;2022-12-05T01:43:00;2.35;;;1.73;;
58360;SDS011;44164;44.954;10.068;2022-12-05T01:45:35;2.63;;;1.93;;
58360;SDS011;44164;44.954;10.068;2022-12-05T01:48:04;2.60;;;1.92;;
58360;SDS011;44164;44.954;10.068;2022-12-05T01:50:33;3.38;;;2.05;;
58360;SDS011;44164;44.954;10.068;2022-12-05T01:53:00;2.67;;;1.88;;
58360;SDS011;44164;44.954;10.068;2022-12-05T01:55:27;2.13;;;1.50;;
58360;SDS011;44164;44.954;10.068;2022-12-05T01:57:54;2.50;;;1.67;;
58360;SDS011;44164;44.954;10.068;2022-12-05T02:02:48;3.95;;;1.90;;
58360;SDS011;44164;44.954;10.068;2022-12-05T02:05:19;2.28;;;1.63;;
58360;SDS011;44164;44.954;10.068;2022-12-05T02:07:47;2.78;;;1.88;;
58360;SDS011;44164;44.954;10.068;2022-12-05T02:10:14;2.80;;;1.95;;
58360;SDS011;44164;44.954;10.068;2022-12-05T02:12:40;2.22;;;1.83;;
58360;SDS011;44164;44.954;10.068;2022-12-05T02:15:14;2.08;;;1.48;;
58360;SDS011;44164;44.954;10.068;2022-12-05T02:31:56;2.38;;;1.80;;
58360;SDS011;44164;44.954;10.068;2022-12-05T02:37:33;2.03;;;1.67;;
58360;SDS011;44164;44.954;10.068;2022-12-05T02:42:40;2.22;;;1.70;;
58360;SDS011;44164;44.954;10.068;2022-12-05T02:45:15;2.83;;;1.25;;
58360;SDS011;44164;44.954;10.068;2022-12-05T02:47:44;2.20;;;1.15;;
58360;SDS011;44164;44.954;10.068;2022-12-05T02:50:13;2.65;;;1.73;;
58360;SDS011;44164;44.954;10.068;2022-12-05T02:52:41;2.00;;;1.35;;
58360;SDS011;44164;44.954;10.068;2022-12-05T02:55:08;1.77;;;1.40;;
58360;SDS011;44164;44.954;10.068;2022-12-05T02:57:35;2.20;;;1.77;;
58360;SDS011;44164;44.954;10.068;2022-12-05T03:00:02;2.10;;;1.50;;
58360;SDS011;44164;44.954;10.068;2022-12-05T03:02:32;3.53;;;1.73;;
58360;SDS011;44164;44.954;10.068;2022-12-05T03:07:58;2.92;;;1.50;;
58360;SDS011;44164;44.954;10.068;2022-12-05T03:10:25;1.95;;;1.45;;
58360;SDS011;44164;44.954;10.068;2022-12-05T03:12:55;2.22;;;1.60;;
58360;SDS011;44164;44.954;10.068;2022-12-05T03:15:26;2.35;;;1.60;;
58360;SDS011;44164;44.954;10.068;2022-12-05T03:17:57;1.95;;;1.45;;
58360;SDS011;44164;44.954;10.068;2022-12-05T03:20:33;1.83;;;1.42;;
58360;SDS011;44164;44.954;10.068;2022-12-05T03:23:10;2.80;;;1.50;;
58360;SDS011;44164;44.954;10.068;2022-12-05T03:25:49;2.63;;;1.70;;
58360;SDS011;44164;44.954;10.068;2022-12-05T03:28:29;2.47;;;1.80;;
58360;SDS011;44164;44.954;10.068;2022-12-05T03:31:00;1.80;;;1.30;;
58360;SDS011;44164;44.954;10.068;2022-12-05T03:33:33;2.40;;;1.50;;
58360;SDS011;44164;44.954;10.068;2022-12-05T03:36:12;2.38;;;1.70;;
58360;SDS011;44164;44.954;10.068;2022-12-05T03:41:24;2.25;;;1.58;;
58360;SDS011;44164;44.954;10.068;2022-12-05T03:44:00;2.35;;;1.42;;
58360;SDS011;44164;44.954;10.068;2022-12-05T03:46:39;1.95;;;1.42;;
58360;SDS011;44164;44.954;10.068;2022-12-05T03:49:12;2.00;;;1.48;;
58360;SDS011;44164;44.954;10.068;2022-12-05T03:51:56;2.03;;;1.63;;
58360;SDS011;44164;44.954;10.068;2022-12-05T03:54:46;2.30;;;1.63;;
58360;SDS011;44164;44.954;10.068;2022-12-05T03:57:38;2.17;;;1.70;;
58360;SDS011;44164;44.954;10.068;2022-12-05T04:00:07;1.90;;;1.50;;
58360;SDS011;44164;44.954;10.068;2022-12-05T04:05:20;2.38;;;1.58;;
58360;SDS011;44164;44.954;10.068;2022-12-05T04:07:48;2.05;;;1.67;;
58360;SDS011;44164;44.954;10.068;2022-12-05T04:10:30;2.42;;;1.63;;
58360;SDS011;44164;44.954;10.068;2022-12-05T04:13:17;2.40;;;1.63;;
58360;SDS011;44164;44.954;10.068;2022-12-05T04:19:04;2.25;;;1.45;;
58360;SDS011;44164;44.954;10.068;2022-12-05T04:21:33;2.35;;;1.70;;
58360;SDS011;44164;44.954;10.068;2022-12-05T04:24:08;2.20;;;1.85;;
58360;SDS011;44164;44.954;10.068;2022-12-05T04:30:09;2.17;;;1.45;;
58360;SDS011;44164;44.954;10.068;2022-12-05T04:35:18;2.20;;;1.42;;
58360;SDS011;44164;44.954;10.068;2022-12-05T04:40:25;2.10;;;1.63;;
58360;SDS011;44164;44.954;10.068;2022-12-05T04:42:54;2.00;;;1.40;;
58360;SDS011;44164;44.954;10.068;2022-12-05T04:45:21;2.58;;;1.90;;
58360;SDS011;44164;44.954;10.068;2022-12-05T04:47:50;2.03;;;1.40;;
58360;SDS011;44164;44.954;10.068;2022-12-05T04:50:20;2.40;;;1.60;;
58360;SDS011;44164;44.954;10.068;2022-12-05T04:52:49;2.38;;;1.98;;
58360;SDS011;44164;44.954;10.068;2022-12-05T04:55:22;1.73;;;1.38;;
58360;SDS011;44164;44.954;10.068;2022-12-05T05:00:28;1.80;;;1.50;;
58360;SDS011;44164;44.954;10.068;2022-12-05T05:05:29;2.63;;;1.88;;
58360;SDS011;44164;44.954;10.068;2022-12-05T05:07:57;1.80;;;1.33;;
58360;SDS011;44164;44.954;10.068;2022-12-05T05:10:31;3.05;;;2.00;;
58360;SDS011;44164;44.954;10.068;2022-12-05T05:13:00;1.95;;;1.52;;
58360;SDS011;44164;44.954;10.068;2022-12-05T05:15:26;2.20;;;1.60;;
58360;SDS011;44164;44.954;10.068;2022-12-05T05:17:52;2.08;;;1.45;;
58360;SDS011;44164;44.954;10.068;2022-12-05T05:20:18;2.17;;;1.65;;
58360;SDS011;44164;44.954;10.068;2022-12-05T05:22:55;2.30;;;1.60;;
58360;SDS011;44164;44.954;10.068;2022-12-05T05:25:22;2.35;;;1.80;;
58360;SDS011;44164;44.954;10.068;2022-12-05T05:27:50;2.03;;;1.50;;
58360;SDS011;44164;44.954;10.068;2022-12-05T05:30:18;2.33;;;1.70;;
58360;SDS011;44164;44.954;10.068;2022-12-05T05:32:45;2.03;;;1.60;;
58360;SDS011;44164;44.954;10.068;2022-12-05T05:35:11;2.03;;;1.58;;
58360;SDS011;44164;44.954;10.068;2022-12-05T05:37:38;2.35;;;1.75;;
58360;SDS011;44164;44.954;10.068;2022-12-05T05:40:06;2.30;;;1.70;;
58360;SDS011;44164;44.954;10.068;2022-12-05T05:42:33;1.90;;;1.50;;
58360;SDS011;44164;44.954;10.068;2022-12-05T05:44:59;2.28;;;1.20;;
58360;SDS011;44164;44.954;10.068;2022-12-05T05:47:25;2.05;;;1.63;;
58360;SDS011;44164;44.954;10.068;2022-12-05T05:49:51;2.08;;;1.58;;
58360;SDS011;44164;44.954;10.068;2022-12-05T05:52:17;2.03;;;1.58;;
58360;SDS011;44164;44.954;10.068;2022-12-05T05:54:43;1.90;;;1.40;;
58360;SDS011;44164;44.954;10.068;2022-12-05T05:57:09;2.70;;;1.95;;
58360;SDS011;44164;44.954;10.068;2022-12-05T05:59:35;2.10;;;1.60;;
58360;SDS011;44164;44.954;10.068;2022-12-05T06:02:01;3.08;;;2.00;;
58360;SDS011;44164;44.954;10.068;2022-12-05T06:04:27;2.22;;;1.50;;
58360;SDS011;44164;44.954;10.068;2022-12-05T06:06:54;2.42;;;1.50;;
58360;SDS011;44164;44.954;10.068;2022-12-05T06:09:20;2.05;;;1.40;;
58360;SDS011;44164;44.954;10.068;2022-12-05T06:11:46;2.55;;;1.50;;
58360;SDS011;44164;44.954;10.068;2022-12-05T06:14:12;2.30;;;1.80;;
58360;SDS011;44164;44.954;10.068;2022-12-05T06:16:38;2.53;;;1.95;;
58360;SDS011;44164;44.954;10.068;2022-12-05T06:19:04;2.92;;;2.17;;
58360;SDS011;44164;44.954;10.068;2022-12-05T06:21:30;2.95;;;2.40;;
58360;SDS011;44164;44.954;10.068;2022-12-05T06:23:56;3.97;;;2.85;;
58360;SDS011;44164;44.954;10.068;2022-12-05T06:26:22;4.25;;;3.28;;
58360;SDS011;44164;44.954;10.068;2022-12-05T06:28:48;3.50;;;3.17;;
58360;SDS011;44164;44.954;10.068;2022-12-05T06:31:16;3.90;;;3.50;;
58360;SDS011;44164;44.954;10.068;2022-12-05T06:33:43;4.82;;;3.72;;
58360;SDS011;44164;44.954;10.068;2022-12-05T06:36:11;6.13;;;4.10;;
58360;SDS011;44164;44.954;10.068;2022-12-05T06:38:39;6.53;;;5.25;;
58360;SDS011;44164;44.954;10.068;2022-12-05T06:41:05;10.40;;;8.27;;
58360;SDS011;44164;44.954;10.068;2022-12-05T06:43:32;13.10;;;11.73;;
58360;SDS011;44164;44.954;10.068;2022-12-05T06:45:59;11.95;;;10.15;;
58360;SDS011;44164;44.954;10.068;2022-12-05T06:48:29;9.90;;;8.90;;
58360;SDS011;44164;44.954;10.068;2022-12-05T06:50:55;10.50;;;7.88;;
58360;SDS011;44164;44.954;10.068;2022-12-05T06:53:21;8.68;;;7.38;;
58360;SDS011;44164;44.954;10.068;2022-12-05T06:55:57;7.43;;;6.60;;
58360;SDS011;44164;44.954;10.068;2022-12-05T06:58:25;8.05;;;7.25;;
58360;SDS011;44164;44.954;10.068;2022-12-05T07:00:51;9.05;;;7.78;;
58360;SDS011;44164;44.954;10.068;2022-12-05T07:03:36;8.70;;;7.38;;
58360;SDS011;44164;44.954;10.068;2022-12-05T07:06:04;7.93;;;6.38;;
58360;SDS011;44164;44.954;10.068;2022-12-05T07:08:31;7.25;;;6.45;;
58360;SDS011;44164;44.954;10.068;2022-12-05T07:10:57;6.43;;;5.82;;
58360;SDS011;44164;44.954;10.068;2022-12-05T07:13:24;7.50;;;6.00;;
58360;SDS011;44164;44.954;10.068;2022-12-05T07:15:50;6.38;;;5.72;;
58360;SDS011;44164;44.954;10.068;2022-12-05T07:18:16;9.07;;;5.57;;
58360;SDS011;44164;44.954;10.068;2022-12-05T07:20:43;6.78;;;5.50;;
58360;SDS011;44164;44.954;10.068;2022-12-05T07:23:10;8.73;;;5.10;;
58360;SDS011;44164;44.954;10.068;2022-12-05T07:25:39;6.68;;;5.15;;
58360;SDS011;44164;44.954;10.068;2022-12-05T07:28:06;5.20;;;4.53;;
58360;SDS011;44164;44.954;10.068;2022-12-05T07:30:32;8.05;;;4.97;;
58360;SDS011;44164;44.954;10.068;2022-12-05T07:32:59;7.63;;;4.68;;
58360;SDS011;44164;44.954;10.068;2022-12-05T07:35:25;4.95;;;4.07;;
58360;SDS011;44164;44.954;10.068;2022-12-05T07:37:52;6.93;;;4.00;;
58360;SDS011;44164;44.954;10.068;2022-12-05T07:40:18;6.55;;;4.38;;
58360;SDS011;44164;44.954;10.068;2022-12-05T07:42:46;5.50;;;4.63;;
58360;SDS011;44164;44.954;10.068;2022-12-05T07:45:13;5.18;;;3.83;;
58360;SDS011;44164;44.954;10.068;2022-12-05T07:47:39;5.72;;;4.03;;
58360;SDS011;44164;44.954;10.068;2022-12-05T07:50:05;4.65;;;3.75;;
58360;SDS011;44164;44.954;10.068;2022-12-05T07:52:32;4.07;;;3.65;;
58360;SDS011;44164;44.954;10.068;2022-12-05T07:54:58;4.35;;;3.85;;
58360;SDS011;44164;44.954;10.068;2022-12-05T07:57:24;4.45;;;3.72;;
58360;SDS011;44164;44.954;10.068;2022-12-05T07:59:50;5.78;;;4.18;;
58360;SDS011;44164;44.954;10.068;2022-12-05T08:02:16;4.35;;;3.75;;
58360;SDS011;44164;44.954;10.068;2022-12-05T08:04:42;4.35;;;3.40;;
58360;SDS011;44164;44.954;10.068;2022-12-05T08:07:09;5.20;;;3.42;;
58360;SDS011;44164;44.954;10.068;2022-12-05T08:09:35;4.57;;;3.75;;
58360;SDS011;44164;44.954;10.068;2022-12-05T08:12:01;6.53;;;3.40;;
58360;SDS011;44164;44.954;10.068;2022-12-05T08:14:27;4.05;;;3.63;;
58360;SDS011;44164;44.954;10.068;2022-12-05T08:16:54;4.88;;;3.38;;
58360;SDS011;44164;44.954;10.068;2022-12-05T08:19:20;4.55;;;3.65;;
58360;SDS011;44164;44.954;10.068;2022-12-05T08:21:46;4.25;;;3.58;;
58360;SDS011;44164;44.954;10.068;2022-12-05T08:24:12;5.88;;;3.78;;
58360;SDS011;44164;44.954;10.068;2022-12-05T08:26:39;4.05;;;3.15;;
58360;SDS011;44164;44.954;10.068;2022-12-05T08:31:33;4.70;;;3.33;;
58360;SDS011;44164;44.954;10.068;2022-12-05T08:34:01;4.85;;;3.17;;
58360;SDS011;44164;44.954;10.068;2022-12-05T08:36:28;4.35;;;3.40;;
58360;SDS011;44164;44.954;10.068;2022-12-05T08:38:58;5.70;;;3.97;;
58360;SDS011;44164;44.954;10.068;2022-12-05T08:41:26;4.07;;;3.25;;
58360;SDS011;44164;44.954;10.068;2022-12-05T08:43:56;4.53;;;3.38;;
58360;SDS011;44164;44.954;10.068;2022-12-05T08:46:24;4.13;;;3.58;;
58360;SDS011;44164;44.954;10.068;2022-12-05T08:48:50;4.07;;;3.20;;
58360;SDS011;44164;44.954;10.068;2022-12-05T08:51:16;3.25;;;2.92;;
58360;SDS011;44164;44.954;10.068;2022-12-05T08:53:43;4.90;;;2.75;;
58360;SDS011;44164;44.954;10.068;2022-12-05T08:56:09;4.20;;;3.03;;
58360;SDS011;44164;44.954;10.068;2022-12-05T08:58:36;3.97;;;2.72;;
58360;SDS011;44164;44.954;10.068;2022-12-05T09:01:06;4.35;;;3.10;;
58360;SDS011;44164;44.954;10.068;2022-12-05T09:03:40;3.80;;;3.00;;
58360;SDS011;44164;44.954;10.068;2022-12-05T09:06:11;4.00;;;3.10;;
58360;SDS011;44164;44.954;10.068;2022-12-05T09:08:39;3.95;;;3.08;;
58360;SDS011;44164;44.954;10.068;2022-12-05T09:11:07;5.03;;;3.13;;
58360;SDS011;44164;44.954;10.068;2022-12-05T09:13:43;4.57;;;2.70;;
58360;SDS011;44164;44.954;10.068;2022-12-05T09:16:16;3.38;;;2.75;;
58360;SDS011;44164;44.954;10.068;2022-12-05T09:18:48;4.03;;;3.30;;
58360;SDS011;44164;44.954;10.068;2022-12-05T09:21:19;3.97;;;3.03;;
58360;SDS011;44164;44.954;10.068;2022-12-05T09:23:46;3.80;;;3.00;;
58360;SDS011;44164;44.954;10.068;2022-12-05T09:26:13;4.63;;;2.78;;
58360;SDS011;44164;44.954;10.068;2022-12-05T09:28:41;3.20;;;2.65;;
58360;SDS011;44164;44.954;10.068;2022-12-05T09:31:09;3.20;;;2.90;;
58360;SDS011;44164;44.954;10.068;2022-12-05T09:33:36;3.65;;;3.00;;
58360;SDS011;44164;44.954;10.068;2022-12-05T09:36:03;3.97;;;2.78;;
58360;SDS011;44164;44.954;10.068;2022-12-05T09:38:30;4.85;;;3.20;;
58360;SDS011;44164;44.954;10.068;2022-12-05T09:44:15;3.40;;;2.75;;
58360;SDS011;44164;44.954;10.068;2022-12-05T09:49:22;3.38;;;2.85;;
58360;SDS011;44164;44.954;10.068;2022-12-05T09:51:49;3.10;;;2.58;;
58360;SDS011;44164;44.954;10.068;2022-12-05T09:54:16;3.70;;;2.75;;
58360;SDS011;44164;44.954;10.068;2022-12-05T09:56:43;4.00;;;2.95;;
58360;SDS011;44164;44.954;10.068;2022-12-05T09:59:13;4.25;;;2.65;;
58360;SDS011;44164;44.954;10.068;2022-12-05T10:20:51;4.70;;;2.70;;
58360;SDS011;44164;44.954;10.068;2022-12-05T10:23:34;3.33;;;2.80;;
58360;SDS011;44164;44.954;10.068;2022-12-05T10:26:14;3.30;;;2.67;;
58360;SDS011;44164;44.954;10.068;2022-12-05T10:31:29;3.40;;;2.72;;
58360;SDS011;44164;44.954;10.068;2022-12-05T10:36:52;3.88;;;2.53;;
58360;SDS011;44164;44.954;10.068;2022-12-05T10:39:20;3.40;;;2.78;;
58360;SDS011;44164;44.954;10.068;2022-12-05T10:41:46;3.33;;;2.53;;
58360;SDS011;44164;44.954;10.068;2022-12-05T10:44:12;3.33;;;2.47;;
58360;SDS011;44164;44.954;10.068;2022-12-05T10:46:38;3.95;;;2.97;;
58360;SDS011;44164;44.954;10.068;2022-12-05T10:49:08;3.63;;;2.75;;
58360;SDS011;44164;44.954;10.068;2022-12-05T10:51:36;2.95;;;2.10;;
58360;SDS011;44164;44.954;10.068;2022-12-05T10:54:07;3.65;;;2.70;;
58360;SDS011;44164;44.954;10.068;2022-12-05T10:59:08;2.50;;;2.00;;
58360;SDS011;44164;44.954;10.068;2022-12-05T11:01:36;3.05;;;2.53;;
58360;SDS011;44164;44.954;10.068;2022-12-05T11:04:17;2.75;;;2.45;;
58360;SDS011;44164;44.954;10.068;2022-12-05T11:06:53;3.17;;;2.42;;
58360;SDS011;44164;44.954;10.068;2022-12-05T11:09:37;2.92;;;2.33;;
58360;SDS011;44164;44.954;10.068;2022-12-05T11:15:02;2.88;;;2.20;;
58360;SDS011;44164;44.954;10.068;2022-12-05T11:17:37;3.30;;;2.30;;
58360;SDS011;44164;44.954;10.068;2022-12-05T11:20:47;3.77;;;2.30;;
58360;SDS011;44164;44.954;10.068;2022-12-05T11:22:54;4.15;;;2.80;;
58360;SDS011;44164;44.954;10.068;2022-12-05T11:27:53;3.45;;;2.83;;
58360;SDS011;44164;44.954;10.068;2022-12-05T11:30:24;4.40;;;2.97;;
58360;SDS011;44164;44.954;10.068;2022-12-05T11:35:43;3.90;;;2.67;;
58360;SDS011;44164;44.954;10.068;2022-12-05T11:38:11;3.93;;;2.67;;
58360;SDS011;44164;44.954;10.068;2022-12-05T11:51:10;3.88;;;2.72;;
58360;SDS011;44164;44.954;10.068;2022-12-05T11:56:42;3.47;;;2.70;;
58360;SDS011;44164;44.954;10.068;2022-12-05T12:07:37;4.32;;;2.67;;
58360;SDS011;44164;44.954;10.068;2022-12-05T12:10:07;3.83;;;2.75;;
58360;SDS011;44164;44.954;10.068;2022-12-05T12:16:09;3.42;;;2.60;;
58360;SDS011;44164;44.954;10.068;2022-12-05T12:30:10;3.90;;;2.17;;
58360;SDS011;44164;44.954;10.068;2022-12-05T12:38:28;6.35;;;3.10;;
58360;SDS011;44164;44.954;10.068;2022-12-05T12:41:24;3.75;;;2.60;;
58360;SDS011;44164;44.954;10.068;2022-12-05T12:47:15;4.35;;;2.65;;
58360;SDS011;44164;44.954;10.068;2022-12-05T12:50:35;4.25;;;2.60;;
58360;SDS011;44164;44.954;10.068;2022-12-05T13:01:31;3.22;;;2.40;;
58360;SDS011;44164;44.954;10.068;2022-12-05T13:04:06;8.27;;;3.35;;
58360;SDS011;44164;44.954;10.068;2022-12-05T13:06:51;8.40;;;3.13;;
58360;SDS011;44164;44.954;10.068;2022-12-05T13:09:34;4.35;;;2.80;;
58360;SDS011;44164;44.954;10.068;2022-12-05T13:12:05;6.10;;;3.30;;
58360;SDS011;44164;44.954;10.068;2022-12-05T13:14:35;4.35;;;2.83;;
58360;SDS011;44164;44.954;10.068;2022-12-05T13:17:02;6.53;;;2.83;;
58360;SDS011;44164;44.954;10.068;2022-12-05T13:19:38;4.80;;;3.10;;
58360;SDS011;44164;44.954;10.068;2022-12-05T13:22:10;4.30;;;3.05;;
58360;SDS011;44164;44.954;10.068;2022-12-05T13:24:36;8.68;;;3.42;;
58360;SDS011;44164;44.954;10.068;2022-12-05T13:27:06;4.90;;;2.80;;
58360;SDS011;44164;44.954;10.068;2022-12-05T13:32:28;4.13;;;2.70;;
58360;SDS011;44164;44.954;10.068;2022-12-05T13:35:21;6.65;;;3.08;;
58360;SDS011;44164;44.954;10.068;2022-12-05T13:38:04;5.45;;;3.00;;
58360;SDS011;44164;44.954;10.068;2022-12-05T13:40:49;4.85;;;2.75;;
58360;SDS011;44164;44.954;10.068;2022-12-05T13:43:40;4.93;;;2.80;;
58360;SDS011;44164;44.954;10.068;2022-12-05T13:46:08;6.00;;;3.13;;
58360;SDS011;44164;44.954;10.068;2022-12-05T13:48:40;5.13;;;3.30;;
58360;SDS011;44164;44.954;10.068;2022-12-05T13:53:48;5.53;;;2.30;;
58360;SDS011;44164;44.954;10.068;2022-12-05T13:57:05;4.38;;;2.83;;
58360;SDS011;44164;44.954;10.068;2022-12-05T14:07:52;6.45;;;3.40;;
58360;SDS011;44164;44.954;10.068;2022-12-05T14:10:23;3.20;;;2.50;;
58360;SDS011;44164;44.954;10.068;2022-12-05T14:15:40;5.55;;;3.17;;
58360;SDS011;44164;44.954;10.068;2022-12-05T14:39:32;4.13;;;2.88;;
58360;SDS011;44164;44.954;10.068;2022-12-05T14:41:59;3.78;;;2.53;;
58360;SDS011;44164;44.954;10.068;2022-12-05T14:44:26;4.28;;;2.63;;
58360;SDS011;44164;44.954;10.068;2022-12-05T14:46:57;4.93;;;2.92;;
58360;SDS011;44164;44.954;10.068;2022-12-05T14:52:29;4.63;;;2.97;;
58360;SDS011;44164;44.954;10.068;2022-12-05T14:55:00;4.63;;;2.67;;
58360;SDS011;44164;44.954;10.068;2022-12-05T14:57:28;3.63;;;2.78;;
58360;SDS011;44164;44.954;10.068;2022-12-05T14:59:58;4.70;;;2.90;;
58360;SDS011;44164;44.954;10.068;2022-12-05T15:02:35;4.82;;;2.88;;
58360;SDS011;44164;44.954;10.068;2022-12-05T15:05:19;3.65;;;2.55;;
58360;SDS011;44164;44.954;10.068;2022-12-05T15:07:47;4.63;;;2.90;;
58360;SDS011;44164;44.954;10.068;2022-12-05T15:10:21;3.60;;;2.40;;
58360;SDS011;44164;44.954;10.068;2022-12-05T15:12:50;4.57;;;3.30;;
58360;SDS011;44164;44.954;10.068;2022-12-05T15:21:01;3.67;;;2.70;;
58360;SDS011;44164;44.954;10.068;2022-12-05T15:23:37;4.07;;;3.17;;
58360;SDS011;44164;44.954;10.068;2022-12-05T15:29:23;3.85;;;2.70;;
58360;SDS011;44164;44.954;10.068;2022-12-05T15:31:46;5.60;;;2.67;;
58360;SDS011;44164;44.954;10.068;2022-12-05T15:34:20;4.22;;;2.90;;
58360;SDS011;44164;44.954;10.068;2022-12-05T15:37:13;4.18;;;2.97;;
58360;SDS011;44164;44.954;10.068;2022-12-05T15:42:22;4.80;;;2.70;;
58360;SDS011;44164;44.954;10.068;2022-12-05T15:44:50;4.28;;;3.08;;
58360;SDS011;44164;44.954;10.068;2022-12-05T15:47:23;4.97;;;3.03;;
58360;SDS011;44164;44.954;10.068;2022-12-05T15:49:50;4.55;;;2.92;;
58360;SDS011;44164;44.954;10.068;2022-12-05T15:54:54;5.78;;;3.53;;
58360;SDS011;44164;44.954;10.068;2022-12-05T15:57:35;5.32;;;3.08;;
58360;SDS011;44164;44.954;10.068;2022-12-05T16:00:05;5.15;;;2.85;;
58360;SDS011;44164;44.954;10.068;2022-12-05T16:05:20;4.43;;;2.15;;
58360;SDS011;44164;44.954;10.068;2022-12-05T16:07:49;4.60;;;3.22;;
58360;SDS011;44164;44.954;10.068;2022-12-05T16:10:16;5.43;;;2.70;;
58360;SDS011;44164;44.954;10.068;2022-12-05T16:12:42;3.85;;;3.08;;
58360;SDS011;44164;44.954;10.068;2022-12-05T16:15:24;5.75;;;2.83;;
58360;SDS011;44164;44.954;10.068;2022-12-05T16:17:55;4.78;;;2.72;;
58360;SDS011;44164;44.954;10.068;2022-12-05T16:20:34;4.55;;;2.92;;
58360;SDS011;44164;44.954;10.068;2022-12-05T16:23:02;4.45;;;3.10;;
58360;SDS011;44164;44.954;10.068;2022-12-05T16:25:49;4.65;;;2.85;;
58360;SDS011;44164;44.954;10.068;2022-12-05T16:28:17;5.78;;;3.22;;
58360;SDS011;44164;44.954;10.068;2022-12-05T16:30:54;4.55;;;3.17;;
58360;SDS011;44164;44.954;10.068;2022-12-05T16:33:22;4.00;;;2.97;;
58360;SDS011;44164;44.954;10.068;2022-12-05T16:35:48;4.70;;;3.03;;
58360;SDS011;44164;44.954;10.068;2022-12-05T16:43:23;5.68;;;3.05;;
58360;SDS011;44164;44.954;10.068;2022-12-05T16:45:51;10.20;;;2.95;;
58360;SDS011;44164;44.954;10.068;2022-12-05T16:50:50;4.65;;;3.00;;
58360;SDS011;44164;44.954;10.068;2022-12-05T16:53:27;6.82;;;3.53;;
58360;SDS011;44164;44.954;10.068;2022-12-05T16:55:56;3.72;;;3.03;;
58360;SDS011;44164;44.954;10.068;2022-12-05T16:58:23;4.10;;;2.72;;
58360;SDS011;44164;44.954;10.068;2022-12-05T17:00:51;5.25;;;2.88;;
58360;SDS011;44164;44.954;10.068;2022-12-05T17:03:17;4.25;;;2.90;;
58360;SDS011;44164;44.954;10.068;2022-12-05T17:05:44;3.80;;;3.33;;
58360;SDS011;44164;44.954;10.068;2022-12-05T17:08:10;5.30;;;3.05;;
58360;SDS011;44164;44.954;10.068;2022-12-05T17:10:36;4.80;;;3.03;;
58360;SDS011;44164;44.954;10.068;2022-12-05T17:13:04;4.00;;;3.20;;
58360;SDS011;44164;44.954;10.068;2022-12-05T17:15:30;3.75;;;2.80;;
58360;SDS011;44164;44.954;10.068;2022-12-05T17:17:57;4.05;;;3.00;;
58360;SDS011;44164;44.954;10.068;2022-12-05T17:20:23;3.72;;;3.05;;
58360;SDS011;44164;44.954;10.068;2022-12-05T17:22:50;4.28;;;3.55;;
58360;SDS011;44164;44.954;10.068;2022-12-05T17:25:17;3.67;;;2.83;;
58360;SDS011;44164;44.954;10.068;2022-12-05T17:27:47;3.38;;;2.60;;
58360;SDS011;44164;44.954;10.068;2022-12-05T17:30:14;5.47;;;2.70;;
58360;SDS011;44164;44.954;10.068;2022-12-05T17:32:40;4.55;;;3.30;;
58360;SDS011;44164;44.954;10.068;2022-12-05T17:35:26;4.55;;;3.25;;
58360;SDS011;44164;44.954;10.068;2022-12-05T17:37:53;4.30;;;3.05;;
58360;SDS011;44164;44.954;10.068;2022-12-05T17:40:19;4.00;;;2.70;;
58360;SDS011;44164;44.954;10.068;2022-12-05T17:42:45;4.22;;;2.95;;
58360;SDS011;44164;44.954;10.068;2022-12-05T17:45:13;5.07;;;2.72;;
58360;SDS011;44164;44.954;10.068;2022-12-05T17:47:41;4.15;;;3.55;;
58360;SDS011;44164;44.954;10.068;2022-12-05T17:50:11;8.00;;;3.45;;
58360;SDS011;44164;44.954;10.068;2022-12-05T17:52:38;5.20;;;3.92;;
58360;SDS011;44164;44.954;10.068;2022-12-05T17:55:05;4.07;;;3.40;;
58360;SDS011;44164;44.954;10.068;2022-12-05T17:57:32;4.13;;;3.35;;
58360;SDS011;44164;44.954;10.068;2022-12-05T17:59:58;4.05;;;3.35;;
58360;SDS011;44164;44.954;10.068;2022-12-05T18:02:24;5.28;;;3.75;;
58360;SDS011;44164;44.954;10.068;2022-12-05T18:04:50;4.70;;;3.88;;
58360;SDS011;44164;44.954;10.068;2022-12-05T18:07:16;5.43;;;3.95;;
58360;SDS011;44164;44.954;10.068;2022-12-05T18:09:42;8.18;;;4.18;;
58360;SDS011;44164;44.954;10.068;2022-12-05T18:12:08;4.85;;;3.55;;
58360;SDS011;44164;44.954;10.068;2022-12-05T18:14:34;5.00;;;3.65;;
58360;SDS011;44164;44.954;10.068;2022-12-05T18:17:01;5.18;;;3.45;;
58360;SDS011;44164;44.954;10.068;2022-12-05T18:19:28;4.90;;;3.08;;
58360;SDS011;44164;44.954;10.068;2022-12-05T18:21:55;5.10;;;3.78;;
58360;SDS011;44164;44.954;10.068;2022-12-05T18:24:21;4.13;;;3.13;;